Hauptseite
METAR-TAF:

METAR-TAF

Flughäfen :

Flughafen Martinique

Fort-de-France, Martinique

Breite: 14-36N, Länge: 061-00W, Höhe: 5 m

Beobachtung

Neuester Wetterbericht von vor 15 Minuten, um 11:00 UTC
Wind 8 kt aus Ost
Temperatur 24°C
Luftfeuchtigkeit 74%
Luftdruck 1018 hPa
Sichtweite 10 km oder mehr
keine Wolken unter 1500 m und keine Kumulonimbus oder Gewitterwolken

METAR: TFFF 221100Z AUTO 08008KT CAVOK 24/19 Q1018

Zeit: 07:15 (11:15 UTC)

Prognose

Neuester Wetterbericht von vor 31 Stunden und 15 Minuten, um 04:00 UTC
Gültige Prognose vom 21 um 06 UTC bis 22 um 06 UTC
Wind 6 kt aus Ost/Südost
Sichtweite 10 km oder mehr
Aufgelockert bewölkt in der Höhe von 2600 ft

TAF: TFFF 210400Z 2106/2206 11006KT 9999 SCT026

Wetterbeobachtungen und Prognosen von mehr als 4000 Flughäfen (METAR und TAF Bericht).

Die verfügbaren Stationen werden durch gelbe und rote Markierungen auf der Karte dargestellt.

Führen Sie die Maus auf sie, um den Namen der Station zu sehen.

Darauf klicken, um die Beobachtung von Wetterbeobachtungen und Prognosen zu sehen.

Um die Karte zu ändern : klicken Sie auf den grünen Tasten mit einem schwarzen Kreuz Zum Vergrößern, auf den grünen Button mit einem Gedankenstrich zu verkleinern, oder auf die grünen Pfeile für benachbarte Karten.


METAR-TAF: